Terminal Aerodrome Forecast
Issued by NWS

Home | Current Version | Previous Version | Text Only | Print | Product List | Glossary On
Versions: 1 2 3 4 5 6 7 8 9 10 11 12
000
FTUS44 KEPZ 292300
TAFLRU
TAF
KLRU 292336Z 3000/3024 12013G19KT P6SM VCSH BKN050 OVC100
     FM300300 13011G17KT P6SM SHRA OVC035
     FM301200 12011G17KT 3SM -RA OVC030
     FM302000 07007KT P6SM -SHRA SCT030=

USA.gov is the U.S. government's official web portal to all federal, state and local government web resources and services.